sensor_id;sensor_type;location;lat;lon;timestamp;P1;durP1;ratioP1;P2;durP2;ratioP2
19969;SDS011;10146;47.754;9.566;2022-09-14T00:00:58;5.70;;;5.10;;
19969;SDS011;10146;47.754;9.566;2022-09-14T00:03:24;7.18;;;4.95;;
19969;SDS011;10146;47.754;9.566;2022-09-14T00:05:50;5.28;;;4.30;;
19969;SDS011;10146;47.754;9.566;2022-09-14T00:08:16;8.00;;;5.63;;
19969;SDS011;10146;47.754;9.566;2022-09-14T00:10:42;6.50;;;5.13;;
19969;SDS011;10146;47.754;9.566;2022-09-14T00:13:09;7.47;;;5.05;;
19969;SDS011;10146;47.754;9.566;2022-09-14T00:15:37;7.05;;;5.15;;
19969;SDS011;10146;47.754;9.566;2022-09-14T00:18:09;5.55;;;4.95;;
19969;SDS011;10146;47.754;9.566;2022-09-14T00:20:35;6.72;;;4.95;;
19969;SDS011;10146;47.754;9.566;2022-09-14T00:23:02;7.90;;;5.25;;
19969;SDS011;10146;47.754;9.566;2022-09-14T00:25:29;7.50;;;4.75;;
19969;SDS011;10146;47.754;9.566;2022-09-14T00:27:56;4.88;;;4.32;;
19969;SDS011;10146;47.754;9.566;2022-09-14T00:30:22;6.13;;;4.22;;
19969;SDS011;10146;47.754;9.566;2022-09-14T00:32:48;4.78;;;4.32;;
19969;SDS011;10146;47.754;9.566;2022-09-14T00:35:15;5.00;;;4.30;;
19969;SDS011;10146;47.754;9.566;2022-09-14T00:37:40;5.03;;;4.53;;
19969;SDS011;10146;47.754;9.566;2022-09-14T00:40:06;6.20;;;5.18;;
19969;SDS011;10146;47.754;9.566;2022-09-14T00:42:33;7.22;;;5.20;;
19969;SDS011;10146;47.754;9.566;2022-09-14T00:45:06;5.90;;;5.18;;
19969;SDS011;10146;47.754;9.566;2022-09-14T00:47:43;4.93;;;4.18;;
19969;SDS011;10146;47.754;9.566;2022-09-14T00:50:11;5.43;;;4.93;;
19969;SDS011;10146;47.754;9.566;2022-09-14T00:52:39;7.28;;;4.47;;
19969;SDS011;10146;47.754;9.566;2022-09-14T00:55:10;5.07;;;4.40;;
19969;SDS011;10146;47.754;9.566;2022-09-14T00:57:39;5.50;;;4.03;;
19969;SDS011;10146;47.754;9.566;2022-09-14T01:00:08;5.97;;;4.13;;
19969;SDS011;10146;47.754;9.566;2022-09-14T01:02:35;4.80;;;4.30;;
19969;SDS011;10146;47.754;9.566;2022-09-14T01:05:01;5.03;;;4.53;;
19969;SDS011;10146;47.754;9.566;2022-09-14T01:15:43;4.45;;;3.92;;
19969;SDS011;10146;47.754;9.566;2022-09-14T01:18:23;4.45;;;3.75;;
19969;SDS011;10146;47.754;9.566;2022-09-14T01:23:40;5.53;;;4.07;;
19969;SDS011;10146;47.754;9.566;2022-09-14T01:26:19;5.60;;;4.10;;
19969;SDS011;10146;47.754;9.566;2022-09-14T01:28:57;4.47;;;4.07;;
19969;SDS011;10146;47.754;9.566;2022-09-14T01:31:32;4.20;;;3.88;;
19969;SDS011;10146;47.754;9.566;2022-09-14T01:34:22;6.50;;;4.10;;
19969;SDS011;10146;47.754;9.566;2022-09-14T01:36:58;3.92;;;3.53;;
19969;SDS011;10146;47.754;9.566;2022-09-14T01:39:29;4.40;;;3.42;;
19969;SDS011;10146;47.754;9.566;2022-09-14T01:41:58;4.15;;;3.85;;
19969;SDS011;10146;47.754;9.566;2022-09-14T01:44:26;5.95;;;3.75;;
19969;SDS011;10146;47.754;9.566;2022-09-14T01:46:58;4.60;;;3.40;;
19969;SDS011;10146;47.754;9.566;2022-09-14T01:49:30;4.60;;;3.50;;
19969;SDS011;10146;47.754;9.566;2022-09-14T01:52:04;4.93;;;3.13;;
19969;SDS011;10146;47.754;9.566;2022-09-14T01:57:20;7.07;;;3.47;;
19969;SDS011;10146;47.754;9.566;2022-09-14T02:00:09;4.00;;;3.20;;
19969;SDS011;10146;47.754;9.566;2022-09-14T02:02:39;5.05;;;3.78;;
19969;SDS011;10146;47.754;9.566;2022-09-14T02:05:16;3.80;;;3.30;;
19969;SDS011;10146;47.754;9.566;2022-09-14T02:07:43;4.32;;;3.42;;
19969;SDS011;10146;47.754;9.566;2022-09-14T02:10:10;5.15;;;3.25;;
19969;SDS011;10146;47.754;9.566;2022-09-14T02:12:37;6.40;;;2.90;;
19969;SDS011;10146;47.754;9.566;2022-09-14T02:15:04;5.90;;;3.53;;
19969;SDS011;10146;47.754;9.566;2022-09-14T02:17:32;3.33;;;2.83;;
19969;SDS011;10146;47.754;9.566;2022-09-14T02:19:59;3.05;;;2.85;;
19969;SDS011;10146;47.754;9.566;2022-09-14T02:22:27;4.68;;;2.72;;
19969;SDS011;10146;47.754;9.566;2022-09-14T02:24:54;3.60;;;3.17;;
19969;SDS011;10146;47.754;9.566;2022-09-14T02:27:20;2.92;;;2.67;;
19969;SDS011;10146;47.754;9.566;2022-09-14T02:29:46;2.70;;;2.50;;
19969;SDS011;10146;47.754;9.566;2022-09-14T02:35:24;3.35;;;2.95;;
19969;SDS011;10146;47.754;9.566;2022-09-14T02:38:14;4.80;;;2.80;;
19969;SDS011;10146;47.754;9.566;2022-09-14T02:41:02;4.03;;;2.80;;
19969;SDS011;10146;47.754;9.566;2022-09-14T02:54:21;3.47;;;2.92;;
19969;SDS011;10146;47.754;9.566;2022-09-14T02:56:58;4.70;;;3.45;;
19969;SDS011;10146;47.754;9.566;2022-09-14T02:59:24;3.92;;;3.63;;
19969;SDS011;10146;47.754;9.566;2022-09-14T03:01:50;5.00;;;4.25;;
19969;SDS011;10146;47.754;9.566;2022-09-14T03:04:16;5.65;;;4.72;;
19969;SDS011;10146;47.754;9.566;2022-09-14T03:06:41;6.13;;;4.18;;
19969;SDS011;10146;47.754;9.566;2022-09-14T03:09:07;4.03;;;3.72;;
19969;SDS011;10146;47.754;9.566;2022-09-14T03:11:33;5.38;;;4.20;;
19969;SDS011;10146;47.754;9.566;2022-09-14T03:13:58;6.03;;;3.95;;
19969;SDS011;10146;47.754;9.566;2022-09-14T03:16:24;6.50;;;3.95;;
19969;SDS011;10146;47.754;9.566;2022-09-14T03:18:49;7.20;;;4.15;;
19969;SDS011;10146;47.754;9.566;2022-09-14T03:21:15;4.60;;;3.63;;
19969;SDS011;10146;47.754;9.566;2022-09-14T03:23:43;7.20;;;3.45;;
19969;SDS011;10146;47.754;9.566;2022-09-14T03:26:12;3.58;;;3.22;;
19969;SDS011;10146;47.754;9.566;2022-09-14T03:28:39;5.82;;;3.35;;
19969;SDS011;10146;47.754;9.566;2022-09-14T03:31:06;4.90;;;3.40;;
19969;SDS011;10146;47.754;9.566;2022-09-14T03:33:33;4.85;;;3.08;;
19969;SDS011;10146;47.754;9.566;2022-09-14T03:35:59;4.47;;;3.22;;
19969;SDS011;10146;47.754;9.566;2022-09-14T03:38:32;4.75;;;3.35;;
19969;SDS011;10146;47.754;9.566;2022-09-14T03:40:58;4.72;;;2.97;;
19969;SDS011;10146;47.754;9.566;2022-09-14T03:43:23;4.50;;;3.40;;
19969;SDS011;10146;47.754;9.566;2022-09-14T03:45:50;4.53;;;3.58;;
19969;SDS011;10146;47.754;9.566;2022-09-14T03:48:16;6.40;;;3.45;;
19969;SDS011;10146;47.754;9.566;2022-09-14T03:50:41;3.33;;;3.03;;
19969;SDS011;10146;47.754;9.566;2022-09-14T03:53:07;3.40;;;3.10;;
19969;SDS011;10146;47.754;9.566;2022-09-14T03:55:33;5.97;;;3.45;;
19969;SDS011;10146;47.754;9.566;2022-09-14T03:57:58;4.72;;;3.20;;
19969;SDS011;10146;47.754;9.566;2022-09-14T04:00:24;4.07;;;3.42;;
19969;SDS011;10146;47.754;9.566;2022-09-14T04:02:49;6.88;;;5.50;;
19969;SDS011;10146;47.754;9.566;2022-09-14T04:05:15;5.18;;;3.72;;
19969;SDS011;10146;47.754;9.566;2022-09-14T04:07:41;6.35;;;3.40;;
19969;SDS011;10146;47.754;9.566;2022-09-14T04:10:07;3.78;;;2.70;;
19969;SDS011;10146;47.754;9.566;2022-09-14T04:12:34;4.22;;;3.20;;
19969;SDS011;10146;47.754;9.566;2022-09-14T04:15:04;6.15;;;3.00;;
19969;SDS011;10146;47.754;9.566;2022-09-14T04:17:30;3.30;;;2.95;;
19969;SDS011;10146;47.754;9.566;2022-09-14T04:19:56;6.65;;;3.58;;
19969;SDS011;10146;47.754;9.566;2022-09-14T04:22:22;5.00;;;3.08;;
19969;SDS011;10146;47.754;9.566;2022-09-14T04:24:47;5.28;;;2.95;;
19969;SDS011;10146;47.754;9.566;2022-09-14T04:27:13;6.85;;;2.90;;
19969;SDS011;10146;47.754;9.566;2022-09-14T04:29:38;5.22;;;3.17;;
19969;SDS011;10146;47.754;9.566;2022-09-14T04:32:04;5.72;;;2.97;;
19969;SDS011;10146;47.754;9.566;2022-09-14T04:34:30;4.07;;;2.90;;
19969;SDS011;10146;47.754;9.566;2022-09-14T04:36:55;5.25;;;3.00;;
19969;SDS011;10146;47.754;9.566;2022-09-14T04:39:21;7.45;;;3.67;;
19969;SDS011;10146;47.754;9.566;2022-09-14T04:41:47;7.80;;;3.03;;
19969;SDS011;10146;47.754;9.566;2022-09-14T04:44:12;3.75;;;2.97;;
19969;SDS011;10146;47.754;9.566;2022-09-14T04:46:38;3.60;;;2.83;;
19969;SDS011;10146;47.754;9.566;2022-09-14T04:49:05;6.53;;;3.40;;
19969;SDS011;10146;47.754;9.566;2022-09-14T04:51:31;5.75;;;2.95;;
19969;SDS011;10146;47.754;9.566;2022-09-14T04:53:58;3.92;;;2.88;;
19969;SDS011;10146;47.754;9.566;2022-09-14T04:56:25;4.50;;;3.10;;
19969;SDS011;10146;47.754;9.566;2022-09-14T04:58:53;4.50;;;3.20;;
19969;SDS011;10146;47.754;9.566;2022-09-14T05:01:23;3.83;;;3.20;;
19969;SDS011;10146;47.754;9.566;2022-09-14T05:03:51;5.32;;;3.63;;
19969;SDS011;10146;47.754;9.566;2022-09-14T05:06:18;5.38;;;3.55;;
19969;SDS011;10146;47.754;9.566;2022-09-14T05:08:46;4.63;;;3.25;;
19969;SDS011;10146;47.754;9.566;2022-09-14T05:11:13;4.20;;;3.38;;
19969;SDS011;10146;47.754;9.566;2022-09-14T05:13:44;3.75;;;3.05;;
19969;SDS011;10146;47.754;9.566;2022-09-14T05:16:13;4.15;;;3.15;;
19969;SDS011;10146;47.754;9.566;2022-09-14T05:18:41;4.47;;;3.35;;
19969;SDS011;10146;47.754;9.566;2022-09-14T05:21:08;6.60;;;3.70;;
19969;SDS011;10146;47.754;9.566;2022-09-14T05:23:36;4.45;;;3.80;;
19969;SDS011;10146;47.754;9.566;2022-09-14T05:26:02;5.05;;;3.45;;
19969;SDS011;10146;47.754;9.566;2022-09-14T05:28:30;4.43;;;3.72;;
19969;SDS011;10146;47.754;9.566;2022-09-14T05:30:56;8.07;;;3.50;;
19969;SDS011;10146;47.754;9.566;2022-09-14T05:33:21;4.20;;;3.80;;
19969;SDS011;10146;47.754;9.566;2022-09-14T05:35:47;5.10;;;3.50;;
19969;SDS011;10146;47.754;9.566;2022-09-14T05:38:14;4.45;;;3.65;;
19969;SDS011;10146;47.754;9.566;2022-09-14T05:40:40;5.90;;;3.63;;
19969;SDS011;10146;47.754;9.566;2022-09-14T05:43:06;4.75;;;3.60;;
19969;SDS011;10146;47.754;9.566;2022-09-14T05:45:32;4.40;;;3.30;;
19969;SDS011;10146;47.754;9.566;2022-09-14T05:48:01;4.00;;;3.60;;
19969;SDS011;10146;47.754;9.566;2022-09-14T05:50:31;6.78;;;3.67;;
19969;SDS011;10146;47.754;9.566;2022-09-14T05:52:57;4.20;;;3.50;;
19969;SDS011;10146;47.754;9.566;2022-09-14T05:55:23;5.22;;;3.20;;
19969;SDS011;10146;47.754;9.566;2022-09-14T05:57:49;6.20;;;3.60;;
19969;SDS011;10146;47.754;9.566;2022-09-14T06:00:15;3.45;;;3.00;;
19969;SDS011;10146;47.754;9.566;2022-09-14T06:02:45;7.30;;;3.75;;
19969;SDS011;10146;47.754;9.566;2022-09-14T06:05:12;5.65;;;3.83;;
19969;SDS011;10146;47.754;9.566;2022-09-14T06:07:38;8.35;;;6.78;;
19969;SDS011;10146;47.754;9.566;2022-09-14T06:10:03;6.90;;;5.38;;
19969;SDS011;10146;47.754;9.566;2022-09-14T06:12:29;4.28;;;3.22;;
19969;SDS011;10146;47.754;9.566;2022-09-14T06:14:55;4.63;;;3.22;;
19969;SDS011;10146;47.754;9.566;2022-09-14T06:17:21;4.78;;;3.65;;
19969;SDS011;10146;47.754;9.566;2022-09-14T06:19:46;5.75;;;3.47;;
19969;SDS011;10146;47.754;9.566;2022-09-14T06:22:12;4.47;;;3.00;;
19969;SDS011;10146;47.754;9.566;2022-09-14T06:24:37;7.20;;;3.67;;
19969;SDS011;10146;47.754;9.566;2022-09-14T06:27:03;4.53;;;2.92;;
19969;SDS011;10146;47.754;9.566;2022-09-14T06:29:30;4.35;;;3.20;;
19969;SDS011;10146;47.754;9.566;2022-09-14T06:31:55;4.57;;;3.75;;
19969;SDS011;10146;47.754;9.566;2022-09-14T06:34:21;4.65;;;3.10;;
19969;SDS011;10146;47.754;9.566;2022-09-14T06:36:47;4.95;;;2.80;;
19969;SDS011;10146;47.754;9.566;2022-09-14T06:39:12;5.18;;;3.22;;
19969;SDS011;10146;47.754;9.566;2022-09-14T06:41:38;5.00;;;2.78;;
19969;SDS011;10146;47.754;9.566;2022-09-14T06:44:04;4.40;;;2.90;;
19969;SDS011;10146;47.754;9.566;2022-09-14T06:46:30;3.42;;;3.10;;
19969;SDS011;10146;47.754;9.566;2022-09-14T06:49:01;3.45;;;2.80;;
19969;SDS011;10146;47.754;9.566;2022-09-14T06:51:37;4.40;;;2.72;;
19969;SDS011;10146;47.754;9.566;2022-09-14T06:54:05;4.30;;;2.97;;
19969;SDS011;10146;47.754;9.566;2022-09-14T06:56:35;5.75;;;2.88;;
19969;SDS011;10146;47.754;9.566;2022-09-14T06:59:03;2.95;;;2.60;;
19969;SDS011;10146;47.754;9.566;2022-09-14T07:01:29;4.28;;;2.90;;
19969;SDS011;10146;47.754;9.566;2022-09-14T07:03:55;5.00;;;2.70;;
19969;SDS011;10146;47.754;9.566;2022-09-14T07:06:23;4.85;;;2.80;;
19969;SDS011;10146;47.754;9.566;2022-09-14T07:08:50;6.28;;;2.92;;
19969;SDS011;10146;47.754;9.566;2022-09-14T07:11:18;5.78;;;2.88;;
19969;SDS011;10146;47.754;9.566;2022-09-14T07:13:46;5.47;;;2.80;;
19969;SDS011;10146;47.754;9.566;2022-09-14T07:16:12;6.38;;;2.35;;
19969;SDS011;10146;47.754;9.566;2022-09-14T07:18:38;3.17;;;2.88;;
19969;SDS011;10146;47.754;9.566;2022-09-14T07:23:30;6.78;;;2.40;;
19969;SDS011;10146;47.754;9.566;2022-09-14T07:26:00;4.05;;;2.28;;
19969;SDS011;10146;47.754;9.566;2022-09-14T07:28:31;5.18;;;2.60;;
19969;SDS011;10146;47.754;9.566;2022-09-14T07:30:57;4.50;;;2.45;;
19969;SDS011;10146;47.754;9.566;2022-09-14T07:33:23;2.30;;;2.03;;
19969;SDS011;10146;47.754;9.566;2022-09-14T07:35:49;4.10;;;2.38;;
19969;SDS011;10146;47.754;9.566;2022-09-14T07:38:14;6.53;;;2.47;;
19969;SDS011;10146;47.754;9.566;2022-09-14T07:40:40;4.88;;;2.60;;
19969;SDS011;10146;47.754;9.566;2022-09-14T07:43:06;4.15;;;2.67;;
19969;SDS011;10146;47.754;9.566;2022-09-14T07:45:33;6.47;;;2.53;;
19969;SDS011;10146;47.754;9.566;2022-09-14T07:47:59;3.10;;;2.30;;
19969;SDS011;10146;47.754;9.566;2022-09-14T07:50:25;5.20;;;4.40;;
19969;SDS011;10146;47.754;9.566;2022-09-14T07:52:51;5.57;;;3.47;;
19969;SDS011;10146;47.754;9.566;2022-09-14T07:55:16;5.50;;;3.45;;
19969;SDS011;10146;47.754;9.566;2022-09-14T07:57:42;4.40;;;2.92;;
19969;SDS011;10146;47.754;9.566;2022-09-14T08:00:08;4.53;;;2.22;;
19969;SDS011;10146;47.754;9.566;2022-09-14T08:02:35;9.35;;;2.60;;
19969;SDS011;10146;47.754;9.566;2022-09-14T08:05:00;6.50;;;2.30;;
19969;SDS011;10146;47.754;9.566;2022-09-14T08:07:26;3.63;;;2.50;;
19969;SDS011;10146;47.754;9.566;2022-09-14T08:09:52;4.38;;;2.45;;
19969;SDS011;10146;47.754;9.566;2022-09-14T08:12:18;3.35;;;2.45;;
19969;SDS011;10146;47.754;9.566;2022-09-14T08:14:43;3.15;;;2.30;;
19969;SDS011;10146;47.754;9.566;2022-09-14T08:17:09;4.95;;;2.40;;
19969;SDS011;10146;47.754;9.566;2022-09-14T08:19:35;4.70;;;2.40;;
19969;SDS011;10146;47.754;9.566;2022-09-14T08:22:01;4.45;;;2.13;;
19969;SDS011;10146;47.754;9.566;2022-09-14T08:24:28;4.00;;;2.22;;
19969;SDS011;10146;47.754;9.566;2022-09-14T08:26:54;6.25;;;2.30;;
19969;SDS011;10146;47.754;9.566;2022-09-14T08:29:20;3.42;;;2.22;;
19969;SDS011;10146;47.754;9.566;2022-09-14T08:31:45;6.30;;;2.45;;
19969;SDS011;10146;47.754;9.566;2022-09-14T08:34:12;4.95;;;2.53;;
19969;SDS011;10146;47.754;9.566;2022-09-14T08:36:39;6.18;;;2.50;;
19969;SDS011;10146;47.754;9.566;2022-09-14T08:39:06;4.25;;;2.58;;
19969;SDS011;10146;47.754;9.566;2022-09-14T08:46:49;6.13;;;2.33;;
19969;SDS011;10146;47.754;9.566;2022-09-14T08:52:06;4.53;;;2.10;;
19969;SDS011;10146;47.754;9.566;2022-09-14T08:54:57;4.40;;;2.33;;
19969;SDS011;10146;47.754;9.566;2022-09-14T08:57:44;3.67;;;2.53;;
19969;SDS011;10146;47.754;9.566;2022-09-14T09:00:22;5.93;;;2.80;;
19969;SDS011;10146;47.754;9.566;2022-09-14T09:03:09;4.05;;;2.90;;
19969;SDS011;10146;47.754;9.566;2022-09-14T09:05:46;5.45;;;2.53;;
19969;SDS011;10146;47.754;9.566;2022-09-14T09:10:48;13.07;;;3.78;;
19969;SDS011;10146;47.754;9.566;2022-09-14T09:13:18;3.20;;;2.55;;
19969;SDS011;10146;47.754;9.566;2022-09-14T09:15:48;3.90;;;2.80;;
19969;SDS011;10146;47.754;9.566;2022-09-14T09:21:16;2.88;;;2.47;;
19969;SDS011;10146;47.754;9.566;2022-09-14T09:23:43;3.05;;;2.67;;
19969;SDS011;10146;47.754;9.566;2022-09-14T09:28:49;5.32;;;2.85;;
19969;SDS011;10146;47.754;9.566;2022-09-14T09:31:17;4.53;;;2.63;;
19969;SDS011;10146;47.754;9.566;2022-09-14T09:33:49;6.75;;;2.40;;
19969;SDS011;10146;47.754;9.566;2022-09-14T09:36:15;2.55;;;2.25;;
19969;SDS011;10146;47.754;9.566;2022-09-14T09:38:41;2.70;;;1.88;;
19969;SDS011;10146;47.754;9.566;2022-09-14T09:41:20;3.10;;;2.10;;
19969;SDS011;10146;47.754;9.566;2022-09-14T09:44:04;3.30;;;2.28;;
19969;SDS011;10146;47.754;9.566;2022-09-14T09:46:33;4.38;;;2.15;;
19969;SDS011;10146;47.754;9.566;2022-09-14T09:49:02;4.28;;;2.20;;
19969;SDS011;10146;47.754;9.566;2022-09-14T09:51:38;4.20;;;2.17;;
19969;SDS011;10146;47.754;9.566;2022-09-14T09:54:17;3.72;;;2.10;;
19969;SDS011;10146;47.754;9.566;2022-09-14T09:59:38;2.83;;;2.03;;
19969;SDS011;10146;47.754;9.566;2022-09-14T10:05:00;3.85;;;2.33;;
19969;SDS011;10146;47.754;9.566;2022-09-14T10:07:33;6.68;;;2.28;;
19969;SDS011;10146;47.754;9.566;2022-09-14T10:12:30;5.30;;;2.00;;
19969;SDS011;10146;47.754;9.566;2022-09-14T10:15:07;3.45;;;2.05;;
19969;SDS011;10146;47.754;9.566;2022-09-14T10:20:36;4.95;;;2.22;;
19969;SDS011;10146;47.754;9.566;2022-09-14T10:25:48;4.32;;;2.10;;
19969;SDS011;10146;47.754;9.566;2022-09-14T10:28:31;4.32;;;2.25;;
19969;SDS011;10146;47.754;9.566;2022-09-14T10:30:59;3.53;;;2.00;;
19969;SDS011;10146;47.754;9.566;2022-09-14T10:33:28;6.45;;;2.28;;
19969;SDS011;10146;47.754;9.566;2022-09-14T10:42:01;3.20;;;2.08;;
19969;SDS011;10146;47.754;9.566;2022-09-14T10:50:39;6.03;;;2.42;;
19969;SDS011;10146;47.754;9.566;2022-09-14T10:53:26;8.63;;;2.17;;
19969;SDS011;10146;47.754;9.566;2022-09-14T10:56:08;7.22;;;2.45;;
19969;SDS011;10146;47.754;9.566;2022-09-14T11:09:39;2.95;;;1.80;;
19969;SDS011;10146;47.754;9.566;2022-09-14T11:13:06;5.65;;;2.10;;
19969;SDS011;10146;47.754;9.566;2022-09-14T11:26:21;3.10;;;1.92;;
19969;SDS011;10146;47.754;9.566;2022-09-14T11:28:59;4.47;;;1.88;;
19969;SDS011;10146;47.754;9.566;2022-09-14T11:32:07;5.95;;;1.80;;
19969;SDS011;10146;47.754;9.566;2022-09-14T11:34:38;4.50;;;1.90;;
19969;SDS011;10146;47.754;9.566;2022-09-14T11:37:11;4.15;;;2.15;;
19969;SDS011;10146;47.754;9.566;2022-09-14T11:40:00;3.35;;;1.67;;
19969;SDS011;10146;47.754;9.566;2022-09-14T11:42:26;5.78;;;1.75;;
19969;SDS011;10146;47.754;9.566;2022-09-14T11:45:08;4.25;;;1.80;;
19969;SDS011;10146;47.754;9.566;2022-09-14T11:47:42;5.45;;;1.88;;
19969;SDS011;10146;47.754;9.566;2022-09-14T11:52:47;5.05;;;1.95;;
19969;SDS011;10146;47.754;9.566;2022-09-14T11:55:36;3.63;;;1.88;;
19969;SDS011;10146;47.754;9.566;2022-09-14T11:58:06;5.50;;;1.50;;
19969;SDS011;10146;47.754;9.566;2022-09-14T12:00:43;5.68;;;1.30;;
19969;SDS011;10146;47.754;9.566;2022-09-14T12:03:22;3.97;;;1.45;;
19969;SDS011;10146;47.754;9.566;2022-09-14T12:11:47;3.33;;;1.50;;
19969;SDS011;10146;47.754;9.566;2022-09-14T12:19:48;5.70;;;1.70;;
19969;SDS011;10146;47.754;9.566;2022-09-14T12:22:24;5.03;;;2.03;;
19969;SDS011;10146;47.754;9.566;2022-09-14T12:27:35;4.38;;;1.70;;
19969;SDS011;10146;47.754;9.566;2022-09-14T12:54:01;6.55;;;2.00;;
19969;SDS011;10146;47.754;9.566;2022-09-14T12:59:28;3.80;;;1.70;;
19969;SDS011;10146;47.754;9.566;2022-09-14T13:05:02;4.70;;;2.05;;
19969;SDS011;10146;47.754;9.566;2022-09-14T13:07:32;5.80;;;2.17;;
19969;SDS011;10146;47.754;9.566;2022-09-14T13:10:00;4.03;;;2.03;;
19969;SDS011;10146;47.754;9.566;2022-09-14T13:12:39;7.80;;;2.15;;
19969;SDS011;10146;47.754;9.566;2022-09-14T13:15:15;5.88;;;2.28;;
19969;SDS011;10146;47.754;9.566;2022-09-14T13:18:22;9.32;;;2.63;;
19969;SDS011;10146;47.754;9.566;2022-09-14T13:20:53;6.72;;;1.90;;
19969;SDS011;10146;47.754;9.566;2022-09-14T13:23:21;4.80;;;2.20;;
19969;SDS011;10146;47.754;9.566;2022-09-14T13:25:56;5.65;;;1.83;;
19969;SDS011;10146;47.754;9.566;2022-09-14T13:28:22;5.30;;;2.17;;
19969;SDS011;10146;47.754;9.566;2022-09-14T13:30:57;5.65;;;2.03;;
19969;SDS011;10146;47.754;9.566;2022-09-14T13:33:24;4.88;;;2.10;;
19969;SDS011;10146;47.754;9.566;2022-09-14T13:35:54;5.28;;;1.88;;
19969;SDS011;10146;47.754;9.566;2022-09-14T13:38:22;5.93;;;2.60;;
19969;SDS011;10146;47.754;9.566;2022-09-14T13:40:55;4.82;;;2.03;;
19969;SDS011;10146;47.754;9.566;2022-09-14T13:43:35;5.45;;;1.70;;
19969;SDS011;10146;47.754;9.566;2022-09-14T13:46:01;6.43;;;2.15;;
19969;SDS011;10146;47.754;9.566;2022-09-14T13:48:31;6.15;;;2.10;;
19969;SDS011;10146;47.754;9.566;2022-09-14T13:51:00;3.95;;;1.75;;
19969;SDS011;10146;47.754;9.566;2022-09-14T13:53:38;6.65;;;1.80;;
19969;SDS011;10146;47.754;9.566;2022-09-14T14:01:39;3.25;;;1.88;;
19969;SDS011;10146;47.754;9.566;2022-09-14T14:04:22;4.47;;;1.60;;
19969;SDS011;10146;47.754;9.566;2022-09-14T14:07:18;4.22;;;1.83;;
19969;SDS011;10146;47.754;9.566;2022-09-14T14:09:48;4.90;;;1.83;;
19969;SDS011;10146;47.754;9.566;2022-09-14T14:12:34;6.97;;;2.17;;
19969;SDS011;10146;47.754;9.566;2022-09-14T14:15:04;3.42;;;2.33;;
19969;SDS011;10146;47.754;9.566;2022-09-14T14:17:50;5.93;;;2.17;;
19969;SDS011;10146;47.754;9.566;2022-09-14T14:28:27;6.13;;;1.80;;
19969;SDS011;10146;47.754;9.566;2022-09-14T14:30:55;4.60;;;1.77;;
19969;SDS011;10146;47.754;9.566;2022-09-14T14:33:22;4.18;;;2.13;;
19969;SDS011;10146;47.754;9.566;2022-09-14T14:35:49;4.68;;;1.55;;
19969;SDS011;10146;47.754;9.566;2022-09-14T14:38:17;4.38;;;1.80;;
19969;SDS011;10146;47.754;9.566;2022-09-14T14:40:43;9.18;;;2.10;;
19969;SDS011;10146;47.754;9.566;2022-09-14T14:43:17;4.15;;;2.00;;
19969;SDS011;10146;47.754;9.566;2022-09-14T14:45:45;6.47;;;1.73;;
19969;SDS011;10146;47.754;9.566;2022-09-14T14:48:11;7.53;;;1.70;;
19969;SDS011;10146;47.754;9.566;2022-09-14T14:50:37;5.30;;;1.85;;
19969;SDS011;10146;47.754;9.566;2022-09-14T14:53:03;3.92;;;2.05;;
19969;SDS011;10146;47.754;9.566;2022-09-14T14:55:29;4.72;;;1.85;;
19969;SDS011;10146;47.754;9.566;2022-09-14T14:57:59;4.13;;;1.67;;
19969;SDS011;10146;47.754;9.566;2022-09-14T15:00:27;5.03;;;1.63;;
19969;SDS011;10146;47.754;9.566;2022-09-14T15:02:56;7.38;;;1.67;;
19969;SDS011;10146;47.754;9.566;2022-09-14T15:05:22;4.35;;;1.60;;
19969;SDS011;10146;47.754;9.566;2022-09-14T15:07:49;6.70;;;1.92;;
19969;SDS011;10146;47.754;9.566;2022-09-14T15:10:17;4.82;;;1.85;;
19969;SDS011;10146;47.754;9.566;2022-09-14T15:12:43;5.70;;;1.77;;
19969;SDS011;10146;47.754;9.566;2022-09-14T15:15:11;9.60;;;1.75;;
19969;SDS011;10146;47.754;9.566;2022-09-14T15:17:44;7.15;;;1.55;;
19969;SDS011;10146;47.754;9.566;2022-09-14T15:20:11;3.63;;;1.33;;
19969;SDS011;10146;47.754;9.566;2022-09-14T15:22:37;3.47;;;1.15;;
19969;SDS011;10146;47.754;9.566;2022-09-14T15:25:04;2.95;;;1.50;;
19969;SDS011;10146;47.754;9.566;2022-09-14T15:27:30;4.97;;;1.65;;
19969;SDS011;10146;47.754;9.566;2022-09-14T15:29:57;5.20;;;1.45;;
19969;SDS011;10146;47.754;9.566;2022-09-14T15:32:22;2.10;;;1.23;;
19969;SDS011;10146;47.754;9.566;2022-09-14T15:34:48;3.33;;;1.30;;
19969;SDS011;10146;47.754;9.566;2022-09-14T15:37:14;3.33;;;1.38;;
19969;SDS011;10146;47.754;9.566;2022-09-14T15:39:40;2.47;;;0.93;;
19969;SDS011;10146;47.754;9.566;2022-09-14T15:42:07;2.97;;;1.35;;
19969;SDS011;10146;47.754;9.566;2022-09-14T15:44:33;4.32;;;1.52;;
19969;SDS011;10146;47.754;9.566;2022-09-14T15:46:59;3.92;;;1.50;;
19969;SDS011;10146;47.754;9.566;2022-09-14T15:49:25;5.68;;;1.60;;
19969;SDS011;10146;47.754;9.566;2022-09-14T15:51:54;3.10;;;1.35;;
19969;SDS011;10146;47.754;9.566;2022-09-14T15:54:21;3.58;;;1.13;;
19969;SDS011;10146;47.754;9.566;2022-09-14T15:56:49;2.33;;;1.23;;
19969;SDS011;10146;47.754;9.566;2022-09-14T15:59:18;4.03;;;1.55;;
19969;SDS011;10146;47.754;9.566;2022-09-14T16:01:44;5.43;;;1.40;;
19969;SDS011;10146;47.754;9.566;2022-09-14T16:04:10;3.63;;;1.52;;
19969;SDS011;10146;47.754;9.566;2022-09-14T16:06:36;2.65;;;1.38;;
19969;SDS011;10146;47.754;9.566;2022-09-14T16:09:03;3.60;;;1.33;;
19969;SDS011;10146;47.754;9.566;2022-09-14T16:11:32;3.85;;;1.30;;
19969;SDS011;10146;47.754;9.566;2022-09-14T16:13:58;3.70;;;1.20;;
19969;SDS011;10146;47.754;9.566;2022-09-14T16:16:24;3.75;;;1.20;;
19969;SDS011;10146;47.754;9.566;2022-09-14T16:18:50;4.50;;;1.20;;
19969;SDS011;10146;47.754;9.566;2022-09-14T16:23:47;3.75;;;1.00;;
19969;SDS011;10146;47.754;9.566;2022-09-14T16:26:17;6.68;;;1.70;;
19969;SDS011;10146;47.754;9.566;2022-09-14T16:28:44;5.72;;;1.50;;
19969;SDS011;10146;47.754;9.566;2022-09-14T16:31:12;4.28;;;1.63;;
19969;SDS011;10146;47.754;9.566;2022-09-14T16:33:41;3.40;;;1.40;;
19969;SDS011;10146;47.754;9.566;2022-09-14T16:36:10;3.92;;;1.40;;
19969;SDS011;10146;47.754;9.566;2022-09-14T16:38:37;2.70;;;1.20;;
19969;SDS011;10146;47.754;9.566;2022-09-14T16:41:04;3.20;;;1.48;;
19969;SDS011;10146;47.754;9.566;2022-09-14T16:43:30;4.10;;;1.48;;
19969;SDS011;10146;47.754;9.566;2022-09-14T16:48:31;3.22;;;1.15;;
19969;SDS011;10146;47.754;9.566;2022-09-14T16:50:57;8.15;;;1.50;;
19969;SDS011;10146;47.754;9.566;2022-09-14T16:53:26;9.93;;;1.95;;
19969;SDS011;10146;47.754;9.566;2022-09-14T16:55:58;5.68;;;1.90;;
19969;SDS011;10146;47.754;9.566;2022-09-14T16:58:32;4.53;;;1.75;;
19969;SDS011;10146;47.754;9.566;2022-09-14T17:01:08;8.13;;;1.80;;
19969;SDS011;10146;47.754;9.566;2022-09-14T17:03:37;4.47;;;1.30;;
19969;SDS011;10146;47.754;9.566;2022-09-14T17:06:04;6.53;;;1.65;;
19969;SDS011;10146;47.754;9.566;2022-09-14T17:08:32;3.30;;;1.30;;
19969;SDS011;10146;47.754;9.566;2022-09-14T17:10:58;5.00;;;1.30;;
19969;SDS011;10146;47.754;9.566;2022-09-14T17:13:25;2.55;;;1.50;;
19969;SDS011;10146;47.754;9.566;2022-09-14T17:15:51;4.65;;;1.90;;
19969;SDS011;10146;47.754;9.566;2022-09-14T17:18:23;4.28;;;1.42;;
19969;SDS011;10146;47.754;9.566;2022-09-14T17:20:56;6.10;;;2.10;;
19969;SDS011;10146;47.754;9.566;2022-09-14T17:23:23;6.35;;;1.55;;
19969;SDS011;10146;47.754;9.566;2022-09-14T17:25:49;4.30;;;1.50;;
19969;SDS011;10146;47.754;9.566;2022-09-14T17:28:16;2.03;;;1.40;;
19969;SDS011;10146;47.754;9.566;2022-09-14T17:30:45;3.28;;;1.35;;
19969;SDS011;10146;47.754;9.566;2022-09-14T17:33:10;4.18;;;1.40;;
19969;SDS011;10146;47.754;9.566;2022-09-14T17:35:36;2.67;;;1.83;;
19969;SDS011;10146;47.754;9.566;2022-09-14T17:38:02;3.72;;;1.70;;
19969;SDS011;10146;47.754;9.566;2022-09-14T17:40:28;4.55;;;1.58;;